createdAt,value
2022-11-04T00:02:29.898Z,10.54
2022-11-04T00:05:38.319Z,10.56
2022-11-04T00:08:46.798Z,10.52
2022-11-04T00:11:55.609Z,10.47
2022-11-04T00:15:03.810Z,10.54
2022-11-04T00:18:19.028Z,10.58
2022-11-04T00:21:27.815Z,10.55
2022-11-04T00:24:36.447Z,10.55
2022-11-04T00:27:44.791Z,10.50
2022-11-04T00:31:01.813Z,10.49
2022-11-04T00:34:03.591Z,10.51
2022-11-04T00:37:18.813Z,10.52
2022-11-04T00:40:21.472Z,10.43
2022-11-04T00:43:35.798Z,10.42
2022-11-04T00:46:37.604Z,10.50
2022-11-04T00:49:52.788Z,10.52
2022-11-04T00:53:08.983Z,10.50
2022-11-04T00:56:23.798Z,10.49
2022-11-04T00:59:32.808Z,10.50
2022-11-04T01:02:47.870Z,10.49
2022-11-04T01:06:04.820Z,10.50
2022-11-04T01:09:14.785Z,10.53
2022-11-04T01:12:29.801Z,10.50
2022-11-04T01:15:37.794Z,10.51
2022-11-04T01:19:00.809Z,10.56
2022-11-04T01:22:02.629Z,10.59
2022-11-04T01:25:17.793Z,10.63
2022-11-04T01:28:32.803Z,10.61
2022-11-04T01:31:41.304Z,10.63
2022-11-04T01:34:49.791Z,10.64
2022-11-04T01:37:58.706Z,10.65
2022-11-04T01:41:15.799Z,10.66
2022-11-04T01:44:58.460Z,10.64
2022-11-04T01:48:17.779Z,10.67
2022-11-04T01:51:28.071Z,10.61
2022-11-04T01:54:45.798Z,10.71
2022-11-04T01:57:56.799Z,10.64
2022-11-04T02:01:05.409Z,10.54
2022-11-04T02:04:19.794Z,10.51
2022-11-04T02:07:28.792Z,10.51
2022-11-04T02:10:41.047Z,10.48
2022-11-04T02:13:49.777Z,10.54
2022-11-04T02:17:17.319Z,10.55
2022-11-04T02:20:35.782Z,10.53
2022-11-04T02:24:05.803Z,10.49
2022-11-04T02:27:24.815Z,10.45
2022-11-04T02:30:48.807Z,10.45
2022-11-04T02:34:29.828Z,10.45
2022-11-04T02:38:12.392Z,10.49
2022-11-04T02:42:07.812Z,10.48
2022-11-04T02:45:22.484Z,10.52
2022-11-04T02:48:48.822Z,10.52
2022-11-04T02:52:05.799Z,10.50
2022-11-04T02:55:23.442Z,10.50
2022-11-04T02:58:43.799Z,10.51
2022-11-04T03:02:00.886Z,10.58
2022-11-04T03:05:12.802Z,10.53
2022-11-04T03:08:31.812Z,10.55
2022-11-04T03:11:50.790Z,10.52
2022-11-04T03:14:58.884Z,10.51
2022-11-04T03:18:42.785Z,10.51
2022-11-04T03:21:59.103Z,10.53
2022-11-04T03:25:15.788Z,10.57
2022-11-04T03:28:34.795Z,10.55
2022-11-04T03:31:52.810Z,10.50
2022-11-04T03:35:07.801Z,10.44
2022-11-04T03:38:22.776Z,10.41
2022-11-04T03:41:38.623Z,10.40
2022-11-04T03:44:57.811Z,10.34
2022-11-04T03:48:12.814Z,10.35
2022-11-04T03:51:20.810Z,10.42
2022-11-04T03:54:32.660Z,10.35
2022-11-04T03:57:46.800Z,10.21
2022-11-04T04:01:33.867Z,10.24
2022-11-04T04:04:46.808Z,10.24
2022-11-04T04:08:21.395Z,10.16
2022-11-04T04:11:38.810Z,10.14
2022-11-04T04:14:59.803Z,10.02
2022-11-04T04:18:19.789Z,10.02
2022-11-04T04:21:41.796Z,9.97
2022-11-04T04:24:54.998Z,9.91
2022-11-04T04:28:04.802Z,9.86
2022-11-04T04:31:16.084Z,9.96
2022-11-04T04:34:30.822Z,10.03
2022-11-04T04:37:42.328Z,10.04
2022-11-04T04:44:23.812Z,10.02
2022-11-04T04:47:45.516Z,9.99
2022-11-04T04:51:02.789Z,10.05
2022-11-04T04:54:11.909Z,10.02
2022-11-04T04:57:19.798Z,9.92
2022-11-04T05:00:28.583Z,9.86
2022-11-04T05:03:45.247Z,9.95
2022-11-04T05:06:59.816Z,9.86
2022-11-04T05:10:01.773Z,9.89
2022-11-04T05:13:19.811Z,9.88
2022-11-04T05:16:40.413Z,9.82
2022-11-04T05:19:48.803Z,9.70
2022-11-04T05:23:03.825Z,9.68
2022-11-04T05:26:05.812Z,9.66
2022-11-04T05:29:20.775Z,9.64
2022-11-04T05:32:28.824Z,9.66
2022-11-04T05:35:43.793Z,9.60
2022-11-04T05:38:59.796Z,9.71
2022-11-04T05:42:08.347Z,9.74
2022-11-04T05:45:16.814Z,9.65
2022-11-04T05:48:25.466Z,9.56
2022-11-04T05:51:39.840Z,9.59
2022-11-04T05:54:41.593Z,9.58
2022-11-04T05:57:56.813Z,9.46
2022-11-04T06:01:14.182Z,9.52
2022-11-04T06:04:28.808Z,9.59
2022-11-04T06:07:37.327Z,9.60
2022-11-04T06:10:45.819Z,9.61
2022-11-04T06:14:02.826Z,9.59
2022-11-04T06:17:24.798Z,9.60
2022-11-04T06:20:33.539Z,9.54
2022-11-04T06:23:49.842Z,9.45
2022-11-04T06:26:58.299Z,9.57
2022-11-04T06:30:13.820Z,9.60
2022-11-04T06:33:22.283Z,9.52
2022-11-04T06:36:30.804Z,9.50
2022-11-04T06:39:45.787Z,9.57
2022-11-04T06:42:54.353Z,9.43
2022-11-04T06:46:09.810Z,9.45
2022-11-04T06:49:20.817Z,9.55
2022-11-04T06:52:29.624Z,9.53
2022-11-04T06:55:44.812Z,9.51
2022-11-04T06:58:50.751Z,9.53
2022-11-04T07:02:05.997Z,9.59
2022-11-04T07:05:14.360Z,9.67
2022-11-04T07:08:28.813Z,9.67
2022-11-04T07:11:37.705Z,9.67
2022-11-04T07:14:52.813Z,9.66
2022-11-04T07:18:08.246Z,9.59
2022-11-04T07:21:22.806Z,9.65
2022-11-04T07:24:31.447Z,9.72
2022-11-04T07:27:39.825Z,9.82
2022-11-04T07:30:54.802Z,9.78
2022-11-04T07:34:02.820Z,9.77
2022-11-04T07:37:11.340Z,9.74
2022-11-04T07:40:25.843Z,9.76
2022-11-04T07:43:40.799Z,9.69
2022-11-04T07:46:55.814Z,9.62
2022-11-04T07:49:57.881Z,9.64
2022-11-04T07:53:13.002Z,9.61
2022-11-04T07:56:27.788Z,9.61
2022-11-04T07:59:29.688Z,9.59
2022-11-04T08:02:44.843Z,9.38
2022-11-04T08:06:07.795Z,9.41
2022-11-04T08:09:16.449Z,9.54
2022-11-04T08:12:31.364Z,9.58
2022-11-04T08:15:42.855Z,9.58
2022-11-04T08:19:04.802Z,9.52
2022-11-04T08:22:06.581Z,9.45
2022-11-04T08:25:21.788Z,9.63
2022-11-04T08:28:36.796Z,9.71
2022-11-04T08:31:51.806Z,9.69
2022-11-04T08:35:06.812Z,9.76
2022-11-04T08:38:08.643Z,9.79
2022-11-04T08:41:26.813Z,9.86
2022-11-04T08:44:28.727Z,9.96
2022-11-04T08:47:45.802Z,9.90
2022-11-04T08:51:02.822Z,9.96
2022-11-04T08:54:06.970Z,9.93
2022-11-04T08:57:23.789Z,9.92
2022-11-04T09:00:39.800Z,9.90
2022-11-04T09:03:41.953Z,9.94
2022-11-04T09:06:56.803Z,10.00
2022-11-04T09:10:12.791Z,10.00
2022-11-04T09:13:22.799Z,9.98
2022-11-04T09:16:35.329Z,10.05
2022-11-04T09:19:57.805Z,10.04
2022-11-04T09:23:13.933Z,10.03
2022-11-04T09:26:23.743Z,10.11
2022-11-04T09:29:31.828Z,10.10
2022-11-04T09:32:40.473Z,9.95
2022-11-04T09:35:48.827Z,10.15
2022-11-04T09:39:03.817Z,10.27
2022-11-04T09:42:24.928Z,10.35
2022-11-04T09:45:41.818Z,10.37
2022-11-04T09:48:53.571Z,10.35
2022-11-04T09:52:38.803Z,10.36
2022-11-04T09:56:01.796Z,10.41
2022-11-04T09:59:04.560Z,10.48
2022-11-04T10:02:39.881Z,10.32
2022-11-04T10:05:59.100Z,10.39
2022-11-04T10:09:35.801Z,10.37
2022-11-04T10:12:52.599Z,10.38
2022-11-04T10:16:34.810Z,10.36
2022-11-04T10:20:13.119Z,10.42
2022-11-04T10:23:28.808Z,10.44
2022-11-04T10:26:45.754Z,10.46
2022-11-04T10:30:09.823Z,10.48
2022-11-04T10:33:29.107Z,10.53
2022-11-04T10:36:44.812Z,10.44
2022-11-04T10:39:47.295Z,10.39
2022-11-04T10:43:07.132Z,10.33
2022-11-04T10:46:26.797Z,10.44
2022-11-04T10:50:26.585Z,10.51
2022-11-04T10:53:27.807Z,10.41
2022-11-04T10:56:51.007Z,10.53
2022-11-04T11:00:05.316Z,10.57
2022-11-04T11:03:40.805Z,10.79
2022-11-04T11:06:56.799Z,11.00
2022-11-04T11:10:11.815Z,10.98
2022-11-04T11:13:40.801Z,10.95
2022-11-04T11:16:55.999Z,10.96
2022-11-04T11:20:29.797Z,10.97
2022-11-04T11:23:46.825Z,11.09
2022-11-04T11:26:58.334Z,11.14
2022-11-04T11:30:25.851Z,11.11
2022-11-04T11:33:54.778Z,11.09
2022-11-04T11:36:57.625Z,11.03
2022-11-04T11:40:12.788Z,11.12
2022-11-04T11:43:34.810Z,11.13
2022-11-04T11:46:58.804Z,11.20
2022-11-04T11:50:25.899Z,11.29
2022-11-04T11:53:34.653Z,11.35
2022-11-04T11:57:12.149Z,11.43
2022-11-04T12:11:38.778Z,11.56
2022-11-04T12:14:51.426Z,11.52
2022-11-04T12:18:37.787Z,11.59
2022-11-04T12:22:05.824Z,11.65
2022-11-04T12:25:34.787Z,11.61
2022-11-04T12:28:50.749Z,11.66
2022-11-04T12:32:22.773Z,11.73
2022-11-04T12:35:37.837Z,11.72
2022-11-04T12:39:08.565Z,11.73
2022-11-04T12:42:33.404Z,11.88
2022-11-04T12:46:02.780Z,11.87
2022-11-04T12:49:29.801Z,11.90
2022-11-04T12:53:03.814Z,11.97
2022-11-04T12:56:22.798Z,11.95
2022-11-04T12:59:40.325Z,11.91
2022-11-04T13:03:22.823Z,12.00
2022-11-04T13:06:34.398Z,12.07
2022-11-04T13:09:54.797Z,12.04
2022-11-04T13:13:11.277Z,12.02
2022-11-04T13:16:19.782Z,12.08
2022-11-04T13:19:43.836Z,12.16
2022-11-04T13:23:04.797Z,12.21
2022-11-04T13:26:19.827Z,12.25
2022-11-04T13:29:35.807Z,12.22
2022-11-04T13:33:11.108Z,12.26
2022-11-04T13:36:33.247Z,12.26
2022-11-04T13:40:00.803Z,12.26
2022-11-04T13:43:39.996Z,12.18
2022-11-04T13:46:58.817Z,12.22
2022-11-04T13:50:27.248Z,12.19
2022-11-04T13:53:55.818Z,12.25
2022-11-04T13:57:28.067Z,12.27
2022-11-04T14:00:41.800Z,12.28
2022-11-04T14:04:11.803Z,12.30
2022-11-04T14:08:08.821Z,12.29
2022-11-04T14:11:23.825Z,12.27
2022-11-04T14:14:25.652Z,12.23
2022-11-04T14:17:40.833Z,12.24
2022-11-04T14:21:05.129Z,12.21
2022-11-04T14:24:19.819Z,12.21
2022-11-04T14:27:46.818Z,12.20
2022-11-04T14:31:03.861Z,12.21
2022-11-04T14:34:34.805Z,12.21
2022-11-04T14:37:55.514Z,12.21
2022-11-04T14:41:39.870Z,12.21
2022-11-04T14:44:55.823Z,12.18
2022-11-04T14:48:16.246Z,12.18
2022-11-04T14:51:34.848Z,12.17
2022-11-04T14:54:43.516Z,12.16
2022-11-04T14:58:00.807Z,12.10
2022-11-04T15:01:10.868Z,12.13
2022-11-04T15:04:28.553Z,12.17
2022-11-04T15:07:43.834Z,12.13
2022-11-04T15:10:58.639Z,12.09
2022-11-04T15:14:31.791Z,12.10
2022-11-04T15:17:40.820Z,12.06
2022-11-04T15:21:05.807Z,12.09
2022-11-04T15:24:22.817Z,12.10
2022-11-04T15:27:37.844Z,12.10
2022-11-04T15:30:49.835Z,12.09
2022-11-04T15:34:06.532Z,12.07
2022-11-04T15:37:23.908Z,12.04
2022-11-04T15:40:32.318Z,12.01
2022-11-04T15:43:47.844Z,11.97
2022-11-04T15:47:01.841Z,11.95
2022-11-04T15:50:27.794Z,11.94
2022-11-04T15:53:53.808Z,11.90
2022-11-04T15:56:59.340Z,11.95
2022-11-04T16:00:23.128Z,11.94
2022-11-04T16:03:31.825Z,11.94
2022-11-04T16:06:43.034Z,11.94
2022-11-04T16:10:06.884Z,11.94
2022-11-04T16:13:17.746Z,11.92
2022-11-04T16:16:27.130Z,11.93
2022-11-04T16:19:46.764Z,11.94
2022-11-04T16:23:02.826Z,11.91
2022-11-04T16:26:18.807Z,11.90
2022-11-04T16:29:37.821Z,11.86
2022-11-04T16:33:12.909Z,11.88
2022-11-04T16:36:35.174Z,11.89
2022-11-04T16:39:46.021Z,11.86
2022-11-04T16:42:55.214Z,11.84
2022-11-04T16:46:04.802Z,11.84
2022-11-04T16:49:23.131Z,11.83
2022-11-04T16:52:36.218Z,11.84
2022-11-04T16:55:46.902Z,11.85
2022-11-04T16:59:02.830Z,11.84
2022-11-04T17:02:19.799Z,11.87
2022-11-04T17:05:29.824Z,11.87
2022-11-04T17:08:39.100Z,11.84
2022-11-04T17:11:47.835Z,11.86
2022-11-04T17:14:57.635Z,11.85
2022-11-04T17:18:13.781Z,11.84
2022-11-04T17:21:24.428Z,11.84
2022-11-04T17:24:39.823Z,11.81
2022-11-04T17:27:50.730Z,11.85
2022-11-04T17:31:08.843Z,11.88
2022-11-04T17:34:18.223Z,11.87
2022-11-04T17:37:27.377Z,11.87
2022-11-04T17:40:43.258Z,11.92
2022-11-04T17:43:52.206Z,11.96
2022-11-04T17:47:01.385Z,12.01
2022-11-04T17:50:30.222Z,11.98
2022-11-04T17:53:48.860Z,11.98
2022-11-04T17:56:58.625Z,12.01
2022-11-04T18:00:07.812Z,12.00
2022-11-04T18:03:23.812Z,11.98
2022-11-04T18:06:41.839Z,11.96
2022-11-04T18:09:45.697Z,11.92
2022-11-04T18:13:02.205Z,11.97
2022-11-04T18:16:18.827Z,11.90
2022-11-04T18:19:35.448Z,11.87
2022-11-04T18:22:50.840Z,11.81
2022-11-04T18:26:07.239Z,11.77
2022-11-04T18:29:10.644Z,11.70
2022-11-04T18:32:26.827Z,11.57
2022-11-04T18:35:43.120Z,11.59
2022-11-04T18:38:47.055Z,11.58
2022-11-04T18:42:04.314Z,11.53
2022-11-04T18:45:07.250Z,11.52
2022-11-04T18:48:23.799Z,11.47
2022-11-04T18:51:27.549Z,11.54
2022-11-04T18:54:46.867Z,11.53
2022-11-04T18:57:56.361Z,11.53
2022-11-04T19:01:18.327Z,11.52
2022-11-04T19:04:27.933Z,11.53
2022-11-04T19:07:44.228Z,11.48
2022-11-04T19:11:01.125Z,11.45
2022-11-04T19:14:17.169Z,11.45
2022-11-04T19:17:33.134Z,11.47
2022-11-04T19:20:44.338Z,11.48
2022-11-04T19:24:07.309Z,11.44
2022-11-04T19:27:17.432Z,11.47
2022-11-04T19:30:27.018Z,11.44
2022-11-04T19:33:36.246Z,11.49
2022-11-04T19:36:52.241Z,11.45
2022-11-04T19:39:56.106Z,11.48
2022-11-04T19:43:12.161Z,11.48
2022-11-04T19:46:21.561Z,11.49
2022-11-04T19:49:38.236Z,11.48
2022-11-04T19:52:47.194Z,11.47
2022-11-04T19:56:03.108Z,11.46
2022-11-04T19:59:13.529Z,11.43
2022-11-04T20:02:30.312Z,11.46
2022-11-04T20:05:40.791Z,11.49
2022-11-04T20:08:57.142Z,11.50
2022-11-04T20:12:12.821Z,11.48
2022-11-04T20:15:15.252Z,11.46
2022-11-04T20:18:30.830Z,11.48
2022-11-04T20:21:47.760Z,11.48
2022-11-04T20:25:04.204Z,11.49
2022-11-04T20:28:13.413Z,11.54
2022-11-04T20:31:29.728Z,11.52
2022-11-04T20:34:46.221Z,11.53
2022-11-04T20:37:56.566Z,11.56
2022-11-04T20:41:24.825Z,11.56
2022-11-04T20:44:41.255Z,11.52
2022-11-04T20:47:46.232Z,11.51
2022-11-04T20:51:03.655Z,11.52
2022-11-04T20:54:13.803Z,11.54
2022-11-04T20:57:29.951Z,11.46
2022-11-04T21:00:48.215Z,11.48
2022-11-04T21:03:53.257Z,11.47
2022-11-04T21:07:09.235Z,11.47
2022-11-04T21:10:18.145Z,11.46
2022-11-04T21:13:27.835Z,11.46
2022-11-04T21:16:37.338Z,11.48
2022-11-04T21:19:45.898Z,11.48
2022-11-04T21:22:54.943Z,11.47
2022-11-04T21:26:20.809Z,11.46
2022-11-04T21:29:29.924Z,11.45
2022-11-04T21:32:48.186Z,11.43
2022-11-04T21:36:08.209Z,11.43
2022-11-04T21:39:10.837Z,11.37
2022-11-04T21:42:26.831Z,11.38
2022-11-04T21:45:42.812Z,11.38
2022-11-04T21:48:58.962Z,11.45
2022-11-04T21:52:13.800Z,11.49
2022-11-04T21:55:28.806Z,11.53
2022-11-04T21:58:31.195Z,11.54
2022-11-04T22:01:46.339Z,11.60
2022-11-04T22:04:54.338Z,11.62
2022-11-04T22:08:02.839Z,11.65
2022-11-04T22:11:24.840Z,11.68
2022-11-04T22:14:33.370Z,11.70
2022-11-04T22:17:41.814Z,11.71
2022-11-04T22:21:00.762Z,11.67
2022-11-04T22:24:08.817Z,11.63
2022-11-04T22:27:17.331Z,11.61
2022-11-04T22:30:31.809Z,11.60
2022-11-04T22:33:46.853Z,11.53
2022-11-04T22:36:54.811Z,11.46
2022-11-04T22:40:04.565Z,11.38
2022-11-04T22:43:13.053Z,11.27
2022-11-04T22:46:27.422Z,11.32
2022-11-04T22:49:42.807Z,11.31
2022-11-04T22:52:51.504Z,11.18
2022-11-04T22:56:07.839Z,11.17
2022-11-04T22:59:22.829Z,11.14
2022-11-04T23:02:36.658Z,11.06
2022-11-04T23:05:45.825Z,10.99
2022-11-04T23:09:01.339Z,10.93
2022-11-04T23:12:16.833Z,10.92
2022-11-04T23:15:25.361Z,10.88
2022-11-04T23:18:33.844Z,10.82
2022-11-04T23:21:49.050Z,10.83
2022-11-04T23:24:57.852Z,10.79
2022-11-04T23:28:06.405Z,10.81
2022-11-04T23:31:14.837Z,10.82
2022-11-04T23:34:29.820Z,10.82
2022-11-04T23:37:37.828Z,10.81
2022-11-04T23:40:55.825Z,10.83
2022-11-04T23:43:57.633Z,10.78
2022-11-04T23:47:12.817Z,10.76
2022-11-04T23:50:22.252Z,10.75
2022-11-04T23:53:36.819Z,10.75
2022-11-04T23:56:38.650Z,10.64
2022-11-04T23:59:53.829Z,10.56
